createdAt,value
2018-03-24T00:00:12.725Z,24.40
2018-03-24T00:02:39.225Z,26.17
2018-03-24T00:05:05.604Z,28.10
2018-03-24T00:07:31.990Z,25.43
2018-03-24T00:09:58.440Z,29.00
2018-03-24T00:12:24.831Z,26.03
2018-03-24T00:14:51.234Z,24.47
2018-03-24T00:17:17.617Z,28.73
2018-03-24T00:19:44.027Z,27.10
2018-03-24T00:22:13.228Z,25.80
2018-03-24T00:24:39.610Z,27.87
2018-03-24T00:27:05.990Z,26.47
2018-03-24T00:29:33.100Z,25.30
2018-03-24T00:31:59.493Z,25.77
2018-03-24T00:34:25.868Z,24.70
2018-03-24T00:36:52.302Z,26.87
2018-03-24T00:39:18.662Z,25.70
2018-03-24T00:41:45.939Z,24.20
2018-03-24T00:44:12.331Z,22.87
2018-03-24T00:46:38.880Z,25.33
2018-03-24T00:49:06.061Z,27.50
2018-03-24T00:51:32.446Z,28.03
2018-03-24T00:53:58.838Z,27.13
2018-03-24T00:56:25.234Z,27.97
2018-03-24T00:58:52.517Z,26.33
2018-03-24T01:01:18.922Z,24.37
2018-03-24T01:03:46.065Z,25.77
2018-03-24T01:06:13.193Z,25.80
2018-03-24T01:08:39.575Z,27.20
2018-03-24T01:11:05.968Z,27.40
2018-03-24T01:13:32.349Z,27.57
2018-03-24T01:15:58.773Z,29.33
2018-03-24T01:18:25.147Z,26.80
2018-03-24T01:20:51.532Z,26.40
2018-03-24T01:23:17.902Z,29.37
2018-03-24T01:25:46.724Z,29.37
2018-03-24T01:28:13.839Z,25.10
2018-03-24T01:30:40.224Z,29.37
2018-03-24T01:33:06.595Z,30.10
2018-03-24T01:35:32.988Z,26.57
2018-03-24T01:37:59.375Z,26.90
2018-03-24T01:40:25.756Z,26.53
2018-03-24T01:42:52.203Z,25.30
2018-03-24T01:45:18.609Z,26.07
2018-03-24T01:47:45.742Z,27.10
2018-03-24T01:50:12.858Z,25.80
2018-03-24T01:52:39.229Z,27.77
2018-03-24T01:55:06.366Z,28.40
2018-03-24T01:57:32.761Z,26.60
2018-03-24T01:59:59.165Z,25.73
2018-03-24T02:02:25.608Z,30.20
2018-03-24T02:04:51.999Z,27.80
2018-03-24T02:07:19.117Z,29.23
2018-03-24T02:09:45.523Z,27.20
2018-03-24T02:12:11.903Z,29.60
2018-03-24T02:14:38.282Z,28.70
2018-03-24T02:17:04.679Z,29.07
2018-03-24T02:19:31.096Z,27.43
2018-03-24T02:21:58.228Z,25.40
2018-03-24T02:24:24.612Z,27.50
2018-03-24T02:26:51.015Z,24.03
2018-03-24T02:29:17.401Z,29.60
2018-03-24T02:31:43.848Z,26.90
2018-03-24T02:34:10.218Z,25.60
2018-03-24T02:36:36.620Z,24.20
2018-03-24T02:39:03.084Z,24.00
2018-03-24T02:41:30.245Z,25.60
2018-03-24T02:43:57.381Z,25.73
2018-03-24T02:46:24.515Z,24.40
2018-03-24T02:49:04.456Z,25.80
2018-03-24T02:51:30.845Z,28.20
2018-03-24T02:53:57.238Z,27.60
2018-03-24T02:56:25.171Z,26.40
2018-03-24T02:58:51.557Z,25.80
2018-03-24T03:01:17.990Z,26.83
2018-03-24T03:03:45.128Z,29.37
2018-03-24T03:06:12.336Z,25.10
2018-03-24T03:08:38.718Z,27.90
2018-03-24T03:11:05.839Z,27.50
2018-03-24T03:13:32.237Z,26.30
2018-03-24T03:15:58.638Z,28.13
2018-03-24T03:18:25.745Z,28.10
2018-03-24T03:20:52.135Z,26.47
2018-03-24T03:23:18.612Z,26.40
2018-03-24T03:25:45.005Z,23.57
2018-03-24T03:28:11.483Z,25.00
2018-03-24T03:30:39.976Z,25.50
2018-03-24T03:33:07.175Z,25.57
2018-03-24T03:35:33.622Z,26.33
2018-03-24T03:38:00.009Z,26.63
2018-03-24T03:40:27.131Z,23.80
2018-03-24T03:42:53.562Z,25.33
2018-03-24T03:45:19.945Z,27.03
2018-03-24T03:47:46.327Z,25.43
2018-03-24T03:50:12.723Z,25.60
2018-03-24T03:52:39.103Z,27.40
2018-03-24T03:55:05.501Z,25.77
2018-03-24T03:57:32.008Z,24.90
2018-03-24T03:59:58.402Z,24.77
2018-03-24T04:02:25.550Z,26.70
2018-03-24T04:04:51.932Z,25.67
2018-03-24T04:07:18.322Z,25.10
2018-03-24T04:09:45.469Z,28.13
2018-03-24T04:12:11.918Z,24.27
2018-03-24T04:14:38.304Z,26.50
2018-03-24T04:17:04.696Z,25.50
2018-03-24T04:19:31.131Z,26.50
2018-03-24T04:21:58.296Z,24.70
2018-03-24T04:24:24.680Z,23.63
2018-03-24T04:26:51.794Z,25.80
2018-03-24T04:29:18.190Z,26.70
2018-03-24T04:31:44.617Z,28.00
2018-03-24T04:34:11.037Z,26.07
2018-03-24T04:36:38.181Z,26.40
2018-03-24T04:39:05.337Z,25.80
2018-03-24T04:41:32.472Z,26.23
2018-03-24T04:43:58.879Z,25.87
2018-03-24T04:46:25.257Z,26.73
2018-03-24T04:48:52.392Z,26.20
2018-03-24T04:51:18.826Z,27.67
2018-03-24T04:53:45.951Z,26.10
2018-03-24T04:56:12.415Z,28.70
2018-03-24T04:58:39.587Z,28.97
2018-03-24T05:01:06.089Z,27.70
2018-03-24T05:03:33.313Z,27.60
2018-03-24T05:05:59.702Z,26.37
2018-03-24T05:08:26.084Z,29.40
2018-03-24T05:10:52.663Z,27.90
2018-03-24T05:13:19.128Z,28.10
2018-03-24T05:15:45.519Z,27.80
2018-03-24T05:18:12.637Z,28.13
2018-03-24T05:20:39.051Z,31.10
2018-03-24T05:23:05.452Z,29.57
2018-03-24T05:25:31.869Z,28.07
2018-03-24T05:27:59.003Z,27.87
2018-03-24T05:30:25.447Z,31.40
2018-03-24T05:32:52.562Z,27.80
2018-03-24T05:35:18.954Z,29.70
2018-03-24T05:37:45.400Z,27.87
2018-03-24T05:40:11.805Z,28.93
2018-03-24T05:42:38.187Z,30.07
2018-03-24T05:45:04.604Z,28.57
2018-03-24T05:47:31.027Z,28.20
2018-03-24T05:49:57.414Z,30.57
2018-03-24T05:52:24.546Z,30.70
2018-03-24T05:54:50.992Z,28.37
2018-03-24T05:57:18.114Z,29.20
2018-03-24T05:59:44.591Z,28.37
2018-03-24T06:02:11.039Z,29.90
2018-03-24T06:04:37.444Z,32.60
2018-03-24T06:07:04.582Z,33.60
2018-03-24T06:09:30.981Z,32.53
2018-03-24T06:11:57.410Z,28.93
2018-03-24T06:14:23.812Z,33.50
2018-03-24T06:16:50.190Z,33.10
2018-03-24T06:19:16.594Z,32.50
2018-03-24T06:21:42.989Z,34.20
2018-03-24T06:24:10.195Z,31.87
2018-03-24T06:26:36.628Z,31.57
2018-03-24T06:29:03.061Z,31.67
2018-03-24T06:31:33.531Z,32.03
2018-03-24T06:34:00.727Z,30.17
2018-03-24T06:36:27.143Z,31.50
2018-03-24T06:38:53.529Z,29.77
2018-03-24T06:41:19.945Z,33.33
2018-03-24T06:43:46.339Z,32.80
2018-03-24T06:46:12.777Z,33.23
2018-03-24T06:48:39.173Z,33.57
2018-03-24T06:51:06.371Z,34.23
2018-03-24T06:53:32.766Z,34.40
2018-03-24T06:55:59.911Z,35.50
2018-03-24T06:58:27.028Z,35.27
2018-03-24T07:00:53.425Z,35.70
2018-03-24T07:03:19.841Z,33.37
2018-03-24T07:05:46.239Z,37.13
2018-03-24T07:08:12.639Z,36.03
2018-03-24T07:10:39.047Z,33.60
2018-03-24T07:13:05.437Z,36.57
2018-03-24T07:15:31.861Z,37.60
2018-03-24T07:17:58.251Z,33.07
2018-03-24T07:20:24.656Z,35.47
2018-03-24T07:22:51.789Z,34.73
2018-03-24T07:25:18.936Z,33.00
2018-03-24T07:27:45.311Z,34.50
2018-03-24T07:30:11.682Z,37.20
2018-03-24T07:32:38.104Z,38.00
2018-03-24T07:35:04.774Z,36.90
2018-03-24T07:37:31.934Z,35.57
2018-03-24T07:39:59.057Z,35.90
2018-03-24T07:42:25.439Z,35.03
2018-03-24T07:44:51.817Z,39.70
2018-03-24T07:47:18.727Z,37.97
2018-03-24T07:49:45.139Z,39.23
2018-03-24T07:52:11.679Z,37.53
2018-03-24T07:54:38.072Z,38.87
2018-03-24T07:57:04.452Z,37.60
2018-03-24T07:59:30.840Z,36.10
2018-03-24T08:01:57.998Z,38.27
2018-03-24T08:04:25.133Z,43.70
2018-03-24T08:06:51.507Z,49.50
2018-03-24T08:09:17.912Z,39.57
2018-03-24T08:11:45.053Z,57.50
2018-03-24T08:14:12.723Z,72.50
2018-03-24T08:16:39.876Z,50.30
2018-03-24T08:19:07.000Z,45.50
2018-03-24T08:21:34.869Z,57.27
2018-03-24T08:24:01.284Z,41.40
2018-03-24T08:26:27.728Z,66.73
2018-03-24T08:28:55.599Z,79.00
2018-03-24T08:31:21.995Z,44.80
2018-03-24T08:33:48.388Z,38.83
2018-03-24T08:36:15.529Z,41.60
2018-03-24T08:38:42.818Z,43.37
2018-03-24T08:41:09.203Z,46.47
2018-03-24T08:43:35.603Z,45.03
2018-03-24T08:46:02.019Z,43.37
2018-03-24T08:48:28.458Z,39.87
2018-03-24T08:50:54.841Z,43.07
2018-03-24T08:53:21.211Z,39.10
2018-03-24T08:55:47.649Z,41.53
2018-03-24T08:58:14.088Z,43.57
2018-03-24T09:00:40.462Z,39.10
2018-03-24T09:03:06.839Z,43.03
2018-03-24T09:05:33.247Z,43.30
2018-03-24T09:07:59.664Z,44.27
2018-03-24T09:10:26.047Z,37.87
2018-03-24T09:12:52.435Z,40.57
2018-03-24T09:15:20.303Z,38.03
2018-03-24T09:17:47.422Z,38.17
2018-03-24T09:20:13.811Z,38.23
2018-03-24T09:22:40.210Z,39.03
2018-03-24T09:25:07.407Z,41.20
2018-03-24T09:27:33.808Z,40.80
2018-03-24T09:30:00.948Z,39.17
2018-03-24T09:32:28.051Z,40.20
2018-03-24T09:34:54.594Z,37.23
2018-03-24T09:37:20.992Z,38.80
2018-03-24T09:39:47.496Z,36.80
2018-03-24T09:42:14.632Z,35.70
2018-03-24T09:44:41.751Z,41.13
2018-03-24T09:47:08.122Z,36.17
2018-03-24T09:49:35.273Z,41.50
2018-03-24T09:52:02.396Z,38.80
2018-03-24T09:54:28.818Z,41.47
2018-03-24T09:56:55.190Z,36.90
2018-03-24T09:59:23.108Z,38.60
2018-03-24T10:01:49.528Z,34.80
2018-03-24T10:04:15.911Z,34.30
2018-03-24T10:06:43.111Z,36.00
2018-03-24T10:09:09.571Z,35.67
2018-03-24T10:11:35.970Z,50.53
2018-03-24T10:14:03.334Z,38.30
2018-03-24T10:16:29.749Z,33.47
2018-03-24T10:18:56.136Z,37.27
2018-03-24T10:24:25.848Z,33.10
2018-03-24T10:26:52.256Z,31.30
2018-03-24T10:29:18.696Z,32.43
2018-03-24T10:31:45.073Z,30.23
2018-03-24T10:34:11.460Z,34.97
2018-03-24T10:36:37.850Z,31.80
2018-03-24T10:39:04.998Z,33.50
2018-03-24T10:41:31.445Z,33.47
2018-03-24T10:43:57.876Z,38.70
2018-03-24T10:46:25.012Z,39.33
2018-03-24T10:48:51.402Z,33.60
2018-03-24T10:51:17.834Z,33.97
2018-03-24T10:53:44.207Z,34.43
2018-03-24T10:56:10.587Z,36.90
2018-03-24T10:58:36.976Z,36.83
2018-03-24T11:01:09.471Z,36.53
2018-03-24T11:03:35.882Z,37.63
2018-03-24T11:06:03.043Z,35.27
2018-03-24T11:08:30.159Z,38.40
2018-03-24T11:10:56.559Z,40.93
2018-03-24T11:13:22.999Z,37.07
2018-03-24T11:15:49.507Z,37.67
2018-03-24T11:18:15.887Z,41.97
2018-03-24T11:20:42.329Z,40.13
2018-03-24T11:23:08.770Z,36.17
2018-03-24T11:25:35.188Z,39.63
2018-03-24T11:28:01.571Z,37.60
2018-03-24T11:30:27.951Z,37.83
2018-03-24T11:32:54.332Z,35.23
2018-03-24T11:35:20.792Z,37.30
2018-03-24T11:37:47.200Z,39.67
2018-03-24T11:40:13.586Z,37.63
2018-03-24T11:42:41.459Z,34.90
2018-03-24T11:45:09.433Z,34.80
2018-03-24T11:47:35.956Z,31.33
2018-03-24T11:50:03.834Z,32.00
2018-03-24T11:52:31.708Z,40.17
2018-03-24T11:54:58.111Z,26.53
2018-03-24T11:57:24.514Z,54.53
2018-03-24T11:59:50.904Z,32.63
2018-03-24T12:02:17.306Z,42.60
2018-03-24T12:04:43.696Z,40.13
2018-03-24T12:07:10.109Z,29.87
2018-03-24T12:09:37.235Z,37.13
2018-03-24T12:12:03.655Z,29.57
2018-03-24T12:14:30.047Z,35.27
2018-03-24T12:16:56.424Z,40.90
2018-03-24T12:19:22.877Z,53.43
2018-03-24T12:21:49.280Z,38.07
2018-03-24T12:24:15.674Z,36.43
2018-03-24T12:26:42.055Z,51.67
2018-03-24T12:29:08.443Z,46.50
2018-03-24T12:31:34.863Z,48.43
2018-03-24T12:34:01.993Z,55.00
2018-03-24T12:36:29.126Z,47.57
2018-03-24T12:38:55.520Z,37.90
2018-03-24T12:41:21.915Z,33.43
2018-03-24T12:43:49.023Z,38.03
2018-03-24T12:46:15.444Z,31.47
2018-03-24T12:48:41.820Z,41.37
2018-03-24T12:51:08.402Z,37.30
2018-03-24T12:53:34.795Z,35.20
2018-03-24T12:56:01.931Z,35.50
2018-03-24T12:58:28.339Z,33.70
2018-03-24T13:00:54.748Z,34.80
2018-03-24T13:03:21.139Z,32.53
2018-03-24T13:05:48.261Z,33.90
2018-03-24T13:08:15.525Z,32.33
2018-03-24T13:10:43.411Z,31.90
2018-03-24T13:13:10.521Z,30.40
2018-03-24T13:15:37.024Z,39.00
2018-03-24T13:18:03.476Z,33.57
2018-03-24T13:20:29.852Z,35.70
2018-03-24T13:22:56.235Z,42.50
2018-03-24T13:25:22.647Z,43.20
2018-03-24T13:27:49.055Z,35.70
2018-03-24T13:30:16.180Z,36.73
2018-03-24T13:32:42.619Z,35.50
2018-03-24T13:35:09.020Z,40.97
2018-03-24T13:37:35.419Z,36.97
2018-03-24T13:40:01.844Z,34.93
2018-03-24T13:42:28.988Z,38.87
2018-03-24T13:44:56.124Z,36.50
2018-03-24T13:47:22.525Z,37.40
2018-03-24T13:49:48.891Z,36.87
2018-03-24T13:52:15.271Z,37.20
2018-03-24T13:54:41.655Z,37.00
2018-03-24T13:57:08.938Z,46.00
2018-03-24T13:59:35.413Z,47.67
2018-03-24T14:02:03.337Z,52.27
2018-03-24T14:04:29.788Z,52.00
2018-03-24T14:06:56.210Z,43.60
2018-03-24T14:09:22.604Z,40.97
2018-03-24T14:11:49.787Z,46.73
2018-03-24T14:14:16.229Z,40.83
2018-03-24T14:16:42.608Z,46.53
2018-03-24T14:19:09.013Z,49.77
2018-03-24T14:21:35.425Z,39.13
2018-03-24T14:24:01.803Z,46.10
2018-03-24T14:26:28.191Z,41.67
2018-03-24T14:28:54.576Z,35.93
2018-03-24T14:31:27.036Z,41.37
2018-03-24T14:33:54.125Z,38.30
2018-03-24T14:36:21.444Z,37.30
2018-03-24T14:38:47.823Z,47.47
2018-03-24T14:41:14.232Z,38.83
2018-03-24T14:43:41.384Z,48.87
2018-03-24T14:46:08.580Z,51.37
2018-03-24T14:48:34.988Z,41.73
2018-03-24T14:51:01.425Z,43.23
2018-03-24T14:53:27.801Z,39.57
2018-03-24T14:55:54.182Z,41.40
2018-03-24T14:58:20.621Z,37.27
2018-03-24T15:00:47.837Z,39.43
2018-03-24T15:03:14.278Z,37.37
2018-03-24T15:05:41.429Z,40.60
2018-03-24T15:08:07.865Z,39.50
2018-03-24T15:10:34.990Z,39.33
2018-03-24T15:13:01.525Z,41.63
2018-03-24T15:15:29.396Z,42.10
2018-03-24T15:17:55.810Z,43.53
2018-03-24T15:20:22.184Z,45.00
2018-03-24T15:22:49.299Z,42.20
2018-03-24T15:25:15.685Z,49.17
2018-03-24T15:27:42.137Z,45.60
2018-03-24T15:30:21.889Z,41.90
2018-03-24T15:32:52.134Z,39.17
2018-03-24T15:35:32.407Z,39.50
2018-03-24T15:37:58.860Z,44.47
2018-03-24T15:40:26.092Z,38.40
2018-03-24T15:42:52.535Z,41.60
2018-03-24T15:45:19.708Z,37.93
2018-03-24T15:47:46.110Z,41.23
2018-03-24T15:50:12.504Z,36.97
2018-03-24T15:52:38.886Z,35.33
2018-03-24T15:55:06.015Z,35.53
2018-03-24T15:57:32.430Z,32.97
2018-03-24T15:59:58.820Z,33.93
2018-03-24T16:02:25.348Z,32.33
2018-03-24T16:04:51.829Z,36.23
2018-03-24T16:07:18.223Z,37.20
2018-03-24T16:09:44.620Z,34.90
2018-03-24T16:12:11.091Z,40.10
2018-03-24T16:14:37.489Z,41.27
2018-03-24T16:17:04.694Z,56.17
2018-03-24T16:19:31.113Z,33.27
2018-03-24T16:21:57.494Z,33.53
2018-03-24T16:24:23.880Z,51.30
2018-03-24T16:26:50.271Z,43.93
2018-03-24T16:29:16.697Z,35.73
2018-03-24T16:31:43.097Z,28.00
2018-03-24T16:34:09.492Z,34.63
2018-03-24T16:36:35.863Z,35.03
2018-03-24T16:39:02.315Z,32.80
2018-03-24T16:41:29.615Z,38.43
2018-03-24T16:43:55.987Z,32.07
2018-03-24T16:46:22.391Z,36.50
2018-03-24T16:48:48.778Z,26.33
2018-03-24T16:51:15.164Z,21.07
2018-03-24T16:53:41.664Z,32.60
2018-03-24T16:56:08.082Z,26.90
2018-03-24T16:58:34.485Z,33.83
2018-03-24T17:01:00.873Z,35.30
2018-03-24T17:03:27.271Z,32.57
2018-03-24T17:05:55.233Z,28.50
2018-03-24T17:08:22.535Z,35.27
2018-03-24T17:10:48.967Z,23.17
2018-03-24T17:13:15.342Z,26.70
2018-03-24T17:15:43.224Z,17.50
2018-03-24T17:18:09.621Z,34.73
2018-03-24T17:20:35.999Z,32.60
2018-03-24T17:23:02.389Z,16.03
2018-03-24T17:25:28.793Z,23.10
2018-03-24T17:27:55.239Z,20.67
2018-03-24T17:30:21.610Z,22.17
2018-03-24T17:32:48.002Z,18.87
2018-03-24T17:35:14.368Z,18.80
2018-03-24T17:37:40.755Z,21.53
2018-03-24T17:40:07.152Z,20.23
2018-03-24T17:42:33.552Z,23.80
2018-03-24T17:44:59.948Z,25.60
2018-03-24T17:47:26.327Z,23.47
2018-03-24T17:49:52.704Z,25.60
2018-03-24T17:52:19.824Z,27.60
2018-03-24T17:54:47.011Z,23.50
2018-03-24T17:57:13.447Z,33.93
2018-03-24T17:59:39.835Z,93.43
2018-03-24T18:02:06.226Z,47.57
2018-03-24T18:04:32.619Z,50.00
2018-03-24T18:06:59.778Z,86.30
2018-03-24T18:09:26.192Z,84.60
2018-03-24T18:11:52.640Z,96.90
2018-03-24T18:14:19.768Z,51.87
2018-03-24T18:16:46.974Z,48.27
2018-03-24T18:19:13.382Z,52.63
2018-03-24T18:21:39.863Z,44.33
2018-03-24T18:24:06.279Z,27.23
2018-03-24T18:26:32.666Z,28.50
2018-03-24T18:28:59.804Z,36.73
2018-03-24T18:31:26.931Z,28.27
2018-03-24T18:33:53.327Z,22.80
2018-03-24T18:36:19.733Z,22.90
2018-03-24T18:38:46.843Z,23.83
2018-03-24T18:41:14.719Z,23.27
2018-03-24T18:43:41.123Z,22.80
2018-03-24T18:46:07.506Z,25.30
2018-03-24T18:48:33.931Z,25.63
2018-03-24T18:51:01.083Z,30.73
2018-03-24T18:53:28.203Z,35.07
2018-03-24T18:55:54.620Z,22.90
2018-03-24T18:58:21.078Z,27.00
2018-03-24T19:00:48.227Z,24.17
2018-03-24T19:03:14.620Z,27.10
2018-03-24T19:05:41.024Z,24.90
2018-03-24T19:08:07.428Z,28.30
2018-03-24T19:10:34.586Z,23.43
2018-03-24T19:13:01.740Z,32.23
2018-03-24T19:15:29.028Z,40.70
2018-03-24T19:17:55.569Z,28.13
2018-03-24T19:20:21.980Z,30.83
2018-03-24T19:22:48.406Z,25.13
2018-03-24T19:25:15.553Z,25.00
2018-03-24T19:27:42.691Z,26.30
2018-03-24T19:30:09.839Z,25.67
2018-03-24T19:32:37.733Z,24.37
2018-03-24T19:35:04.152Z,22.80
2018-03-24T19:37:31.285Z,22.80
2018-03-24T19:39:58.428Z,30.73
2018-03-24T19:42:24.813Z,44.50
2018-03-24T19:44:51.218Z,37.53
2018-03-24T19:47:17.628Z,28.57
2018-03-24T19:49:44.755Z,25.30
2018-03-24T19:52:11.147Z,25.67
2018-03-24T19:54:37.550Z,29.17
2018-03-24T19:57:03.985Z,29.97
2018-03-24T19:59:31.108Z,23.60
2018-03-24T20:01:57.544Z,29.93
2018-03-24T20:04:23.999Z,22.90
2018-03-24T20:06:51.149Z,24.87
2018-03-24T20:09:18.294Z,24.27
2018-03-24T20:11:45.522Z,27.00
2018-03-24T20:14:11.947Z,25.10
2018-03-24T20:16:38.441Z,23.73
2018-03-24T20:19:04.955Z,25.40
2018-03-24T20:21:31.330Z,24.00
2018-03-24T20:23:57.719Z,27.80
2018-03-24T20:26:24.852Z,27.43
2018-03-24T20:28:51.250Z,25.63
2018-03-24T20:31:17.682Z,25.60
2018-03-24T20:33:44.104Z,24.43
2018-03-24T20:36:10.524Z,23.07
2018-03-24T20:38:36.978Z,22.80
2018-03-24T20:41:03.388Z,23.90
2018-03-24T20:43:29.760Z,23.33
2018-03-24T20:45:56.163Z,22.70
2018-03-24T20:48:22.560Z,24.87
2018-03-24T20:50:50.007Z,21.60
2018-03-24T20:53:17.152Z,20.90
2018-03-24T20:55:44.302Z,22.53
2018-03-24T20:58:10.721Z,22.20
2018-03-24T21:00:37.127Z,25.70
2018-03-24T21:03:03.517Z,24.20
2018-03-24T21:05:30.706Z,23.37
2018-03-24T21:07:57.129Z,22.37
2018-03-24T21:10:23.519Z,22.40
2018-03-24T21:12:50.693Z,22.33
2018-03-24T21:15:17.102Z,23.50
2018-03-24T21:17:44.260Z,22.97
2018-03-24T21:20:11.436Z,24.37
2018-03-24T21:22:37.873Z,24.43
2018-03-24T21:25:04.288Z,23.23
2018-03-24T21:27:31.476Z,23.47
2018-03-24T21:29:57.889Z,23.00
2018-03-24T21:32:24.290Z,23.63
2018-03-24T21:34:51.438Z,22.70
2018-03-24T21:37:18.569Z,22.77
2018-03-24T21:39:44.971Z,21.70
2018-03-24T21:42:11.417Z,23.30
2018-03-24T21:44:37.803Z,23.77
2018-03-24T21:47:04.927Z,23.67
2018-03-24T21:49:31.329Z,23.47
2018-03-24T21:51:57.741Z,23.60
2018-03-24T21:54:24.136Z,24.00
2018-03-24T21:56:51.271Z,24.17
2018-03-24T21:59:17.639Z,24.43
2018-03-24T22:01:44.053Z,24.40
2018-03-24T22:04:10.468Z,24.73
2018-03-24T22:06:37.872Z,24.27
2018-03-24T22:09:04.292Z,26.57
2018-03-24T22:11:30.658Z,24.67
2018-03-24T22:13:57.044Z,25.47
2018-03-24T22:16:24.175Z,24.47
2018-03-24T22:18:51.317Z,25.27
2018-03-24T22:21:17.770Z,24.70
2018-03-24T22:23:44.160Z,25.93
2018-03-24T22:26:11.296Z,25.13
2018-03-24T22:28:37.695Z,28.93
2018-03-24T22:31:04.095Z,26.40
2018-03-24T22:33:30.594Z,25.47
2018-03-24T22:35:57.002Z,25.27
2018-03-24T22:38:23.408Z,27.40
2018-03-24T22:40:50.548Z,26.03
2018-03-24T22:43:17.683Z,26.23
2018-03-24T22:45:44.077Z,25.80
2018-03-24T22:48:10.455Z,28.63
2018-03-24T22:50:37.604Z,25.83
2018-03-24T22:53:04.763Z,27.60
2018-03-24T22:55:31.957Z,25.33
2018-03-24T22:57:58.370Z,26.43
2018-03-24T23:00:24.797Z,25.33
2018-03-24T23:02:51.915Z,25.23
2018-03-24T23:05:18.299Z,26.53
2018-03-24T23:07:44.735Z,25.07
2018-03-24T23:10:11.143Z,26.63
2018-03-24T23:12:37.532Z,25.47
2018-03-24T23:15:03.988Z,28.07
2018-03-24T23:17:31.106Z,26.60
2018-03-24T23:19:57.474Z,26.60
2018-03-24T23:22:24.655Z,28.53
2018-03-24T23:24:51.048Z,27.70
2018-03-24T23:27:18.166Z,27.63
2018-03-24T23:29:44.562Z,27.53
2018-03-24T23:32:11.004Z,27.87
2018-03-24T23:34:37.386Z,28.37
2018-03-24T23:37:03.786Z,28.47
2018-03-24T23:39:30.975Z,27.40
2018-03-24T23:41:57.343Z,29.77
2018-03-24T23:44:23.732Z,29.27
2018-03-24T23:46:50.131Z,30.07
2018-03-24T23:49:16.525Z,32.40
2018-03-24T23:51:42.941Z,29.83
2018-03-24T23:54:10.074Z,30.27
2018-03-24T23:56:36.486Z,29.03
2018-03-24T23:59:02.925Z,32.60
